Time;durP1;ratioP1;P1;durP2;ratioP2;P2;SDS_P1;SDS_P2;PMS_P1;PMS_P2;Temp;Humidity;BMP_temperature;BMP_pressure;BME280_temperature;BME280_humidity;BME280_pressure;Samples;Min_cycle;Max_cycle;Signal;HPM_P1;HPM_P2
2022/06/24 00:01:39;;;;;;;4.65;1.27;;;;;;;;;;5026369;28;20203;-84
2022/06/24 00:04:06;;;;;;;3.80;1.30;;;;;;;;;;5018111;28;20242;-84
2022/06/24 00:06:42;;;;;;;4.57;1.55;;;;;;;;;;5020155;28;20207;-84
2022/06/24 00:09:09;;;;;;;3.53;1.45;;;;;;;;;;5030380;28;20234;-84
2022/06/24 00:11:36;;;;;;;2.65;1.30;;;;;;;;;;5017777;28;20212;-84
2022/06/24 00:14:07;;;;;;;3.03;1.40;;;;;;;;;;5017810;28;20227;-84
2022/06/24 00:16:53;;;;;;;4.53;1.20;;;;;;;;;;5018641;28;20672;-84
2022/06/24 00:19:20;;;;;;;1.35;1.13;;;;;;;;;;5017331;28;20262;-84
2022/06/24 00:21:57;;;;;;;2.22;1.13;;;;;;;;;;5017877;28;20210;-83
2022/06/24 00:24:24;;;;;;;3.00;1.20;;;;;;;;;;5016850;28;20239;-84
2022/06/24 00:26:52;;;;;;;3.03;1.45;;;;;;;;;;5017865;28;20207;-84
2022/06/24 00:29:20;;;;;;;2.70;0.95;;;;;;;;;;5017235;28;20606;-84
2022/06/24 00:32:00;;;;;;;4.13;1.02;;;;;;;;;;5017734;28;20234;-83
2022/06/24 00:34:27;;;;;;;1.77;1.13;;;;;;;;;;5016990;28;20250;-84
2022/06/24 00:36:54;;;;;;;5.25;1.08;;;;;;;;;;5016676;28;20230;-84
2022/06/24 00:39:21;;;;;;;4.07;1.38;;;;;;;;;;5016717;28;20754;-84
2022/06/24 00:41:51;;;;;;;3.42;1.42;;;;;;;;;;5015462;28;20228;-83
2022/06/24 00:44:19;;;;;;;4.05;1.50;;;;;;;;;;5015332;28;20239;-83
2022/06/24 00:46:48;;;;;;;2.05;1.10;;;;;;;;;;5016134;28;20637;-84
2022/06/24 00:49:16;;;;;;;3.22;1.30;;;;;;;;;;5016261;28;20235;-84
2022/06/24 00:51:43;;;;;;;2.05;1.20;;;;;;;;;;5016180;28;20199;-84
2022/06/24 00:54:11;;;;;;;2.28;1.33;;;;;;;;;;5014903;28;20249;-82
2022/06/24 00:56:39;;;;;;;1.48;1.13;;;;;;;;;;5016230;28;20236;-83
2022/06/24 00:59:07;;;;;;;4.57;1.35;;;;;;;;;;5015848;28;20231;-84
2022/06/24 01:01:35;;;;;;;2.83;1.38;;;;;;;;;;5029384;28;20477;-84
2022/06/24 01:04:04;;;;;;;1.52;1.20;;;;;;;;;;5035092;28;20237;-83
2022/06/24 01:06:32;;;;;;;3.22;1.55;;;;;;;;;;5022694;28;20203;-83
2022/06/24 01:08:59;;;;;;;2.10;1.30;;;;;;;;;;5001646;28;20231;-84
2022/06/24 01:11:26;;;;;;;4.63;1.02;;;;;;;;;;4996880;28;20236;-84
2022/06/24 01:13:54;;;;;;;3.97;1.70;;;;;;;;;;4996063;28;20212;-84
2022/06/24 01:16:21;;;;;;;4.78;1.58;;;;;;;;;;4997143;28;20206;-84
2022/06/24 01:18:51;;;;;;;3.75;1.25;;;;;;;;;;4997154;28;20208;-84
2022/06/24 01:21:32;;;;;;;2.25;1.15;;;;;;;;;;4995523;28;20262;-84
2022/06/24 01:24:04;;;;;;;1.90;1.10;;;;;;;;;;5006188;28;20239;-84
2022/06/24 01:26:31;;;;;;;2.95;1.23;;;;;;;;;;4997552;28;20227;-84
2022/06/24 01:28:58;;;;;;;3.33;1.35;;;;;;;;;;4999500;28;20240;-83
2022/06/24 01:31:25;;;;;;;2.67;1.10;;;;;;;;;;4998781;28;20238;-84
2022/06/24 01:33:52;;;;;;;4.60;1.05;;;;;;;;;;4999366;28;20219;-84
2022/06/24 01:36:19;;;;;;;3.17;1.20;;;;;;;;;;5000291;28;20208;-83
2022/06/24 01:38:47;;;;;;;1.73;0.98;;;;;;;;;;5001496;28;20208;-84
2022/06/24 01:41:14;;;;;;;2.63;1.67;;;;;;;;;;4999095;28;20236;-83
2022/06/24 01:43:41;;;;;;;5.93;1.50;;;;;;;;;;4997146;28;20751;-82
2022/06/24 01:46:08;;;;;;;4.22;1.50;;;;;;;;;;4996855;28;20208;-82
2022/06/24 01:48:35;;;;;;;2.58;1.35;;;;;;;;;;4997126;28;20211;-82
2022/06/24 01:51:02;;;;;;;4.18;1.13;;;;;;;;;;4997406;28;20235;-82
2022/06/24 01:53:29;;;;;;;2.03;1.17;;;;;;;;;;4997276;28;20208;-82
2022/06/24 01:55:58;;;;;;;2.33;1.13;;;;;;;;;;4997115;28;20239;-82
2022/06/24 01:58:25;;;;;;;2.92;1.30;;;;;;;;;;4997290;28;20643;-83
2022/06/24 02:00:52;;;;;;;2.97;1.20;;;;;;;;;;4996503;28;20235;-83
2022/06/24 02:03:19;;;;;;;1.48;1.30;;;;;;;;;;4997379;28;20258;-83
2022/06/24 02:05:46;;;;;;;1.55;1.10;;;;;;;;;;4996499;28;20778;-84
2022/06/24 02:08:14;;;;;;;3.95;1.38;;;;;;;;;;5005374;28;20200;-83
2022/06/24 02:13:28;;;;;;;2.75;1.20;;;;;;;;;;4998302;28;20188;-83
2022/06/24 02:15:55;;;;;;;2.88;1.20;;;;;;;;;;4996871;28;20240;-84
2022/06/24 02:18:22;;;;;;;3.97;1.50;;;;;;;;;;4996692;28;20232;-84
2022/06/24 02:20:49;;;;;;;6.25;1.88;;;;;;;;;;4996278;28;20251;-84
2022/06/24 02:23:18;;;;;;;4.25;1.50;;;;;;;;;;4996534;28;20210;-85
2022/06/24 02:25:45;;;;;;;2.58;1.23;;;;;;;;;;4996032;28;20239;-84
2022/06/24 02:28:12;;;;;;;2.15;1.35;;;;;;;;;;4996954;28;20730;-84
2022/06/24 02:30:41;;;;;;;1.58;1.27;;;;;;;;;;4996487;28;20627;-85
2022/06/24 02:33:09;;;;;;;5.53;1.70;;;;;;;;;;5006964;28;20223;-84
2022/06/24 02:35:36;;;;;;;2.65;1.58;;;;;;;;;;4998580;28;20242;-84
2022/06/24 02:38:03;;;;;;;2.13;1.48;;;;;;;;;;4997521;28;20282;-84
2022/06/24 02:40:49;;;;;;;7.88;1.83;;;;;;;;;;4996488;28;20318;-84
2022/06/24 02:43:17;;;;;;;3.47;1.60;;;;;;;;;;4996374;28;20707;-84
2022/06/24 02:45:46;;;;;;;3.42;1.58;;;;;;;;;;4995838;28;20235;-84
2022/06/24 02:48:14;;;;;;;3.15;1.27;;;;;;;;;;4996559;28;20657;-83
2022/06/24 02:50:42;;;;;;;4.97;1.20;;;;;;;;;;4996170;28;20267;-84
2022/06/24 02:53:09;;;;;;;3.95;2.03;;;;;;;;;;4996326;28;20574;-85
2022/06/24 02:55:36;;;;;;;2.88;1.58;;;;;;;;;;4996143;28;20239;-84
2022/06/24 02:58:03;;;;;;;5.07;1.55;;;;;;;;;;4996671;28;20239;-85
2022/06/24 03:00:31;;;;;;;2.63;1.45;;;;;;;;;;5014730;23;20227;-86
2022/06/24 03:02:59;;;;;;;3.25;1.55;;;;;;;;;;5015031;28;20208;-87
2022/06/24 03:05:26;;;;;;;3.33;1.17;;;;;;;;;;5013635;28;20239;-87
2022/06/24 03:07:54;;;;;;;2.72;1.25;;;;;;;;;;5014428;28;20682;-87
2022/06/24 03:10:21;;;;;;;2.75;1.40;;;;;;;;;;5013955;28;20243;-87
2022/06/24 03:12:48;;;;;;;2.58;1.00;;;;;;;;;;5014636;28;20214;-87
2022/06/24 03:15:15;;;;;;;1.35;1.25;;;;;;;;;;5013499;28;20231;-86
2022/06/24 03:17:42;;;;;;;2.10;1.20;;;;;;;;;;5014092;28;20243;-87
2022/06/24 03:20:11;;;;;;;1.25;1.15;;;;;;;;;;5013763;28;20587;-86
2022/06/24 03:22:38;;;;;;;1.08;1.08;;;;;;;;;;5014223;28;20207;-87
2022/06/24 03:25:06;;;;;;;2.95;1.10;;;;;;;;;;5013354;28;20727;-86
2022/06/24 03:27:33;;;;;;;2.10;1.10;;;;;;;;;;5014084;28;20219;-86
2022/06/24 03:30:01;;;;;;;2.97;1.30;;;;;;;;;;5013380;28;20243;-86
2022/06/24 03:32:28;;;;;;;3.95;1.23;;;;;;;;;;5013816;28;20211;-86
2022/06/24 03:34:55;;;;;;;2.17;1.35;;;;;;;;;;5013001;28;20634;-86
2022/06/24 03:37:23;;;;;;;1.65;1.50;;;;;;;;;;5013744;28;20227;-87
2022/06/24 03:39:50;;;;;;;2.90;1.40;;;;;;;;;;5013350;28;20239;-86
2022/06/24 03:42:18;;;;;;;1.92;1.30;;;;;;;;;;5013822;28;20210;-86
2022/06/24 03:44:45;;;;;;;6.03;1.60;;;;;;;;;;5012875;28;20726;-86
2022/06/24 03:47:12;;;;;;;2.20;1.35;;;;;;;;;;5013687;28;20567;-87
2022/06/24 03:49:39;;;;;;;5.45;1.50;;;;;;;;;;5012652;28;20584;-86
2022/06/24 03:52:06;;;;;;;2.35;1.45;;;;;;;;;;5013325;28;20204;-86
2022/06/24 03:54:35;;;;;;;1.40;1.30;;;;;;;;;;5012680;28;20235;-86
2022/06/24 03:57:02;;;;;;;6.80;1.50;;;;;;;;;;5013616;28;20207;-86
2022/06/24 03:59:29;;;;;;;1.60;1.30;;;;;;;;;;5013109;28;20238;-87
2022/06/24 04:01:56;;;;;;;2.72;1.67;;;;;;;;;;5013150;28;20222;-86
2022/06/24 04:04:23;;;;;;;2.92;1.55;;;;;;;;;;5012966;28;20239;-86
2022/06/24 04:06:50;;;;;;;2.58;1.42;;;;;;;;;;5021847;28;20210;-86
2022/06/24 04:09:18;;;;;;;2.35;1.88;;;;;;;;;;5022454;28;20235;-86
2022/06/24 04:11:47;;;;;;;4.13;1.80;;;;;;;;;;5021889;28;20326;-86
2022/06/24 04:14:14;;;;;;;3.45;1.40;;;;;;;;;;5018288;28;20239;-86
2022/06/24 04:16:41;;;;;;;1.50;0.98;;;;;;;;;;5021414;28;20235;-87
2022/06/24 04:19:08;;;;;;;3.30;1.88;;;;;;;;;;5016837;28;20624;-86
2022/06/24 04:21:35;;;;;;;2.30;1.45;;;;;;;;;;5015744;28;20238;-87
2022/06/24 04:24:02;;;;;;;3.75;1.40;;;;;;;;;;5013046;28;20239;-87
2022/06/24 04:26:29;;;;;;;2.53;1.50;;;;;;;;;;5013742;28;20211;-86
2022/06/24 04:28:57;;;;;;;2.80;1.38;;;;;;;;;;5013672;28;20285;-86
2022/06/24 04:31:24;;;;;;;2.17;1.20;;;;;;;;;;5021439;28;20231;-87
2022/06/24 04:33:51;;;;;;;2.40;1.63;;;;;;;;;;5013673;28;20242;-87
2022/06/24 04:36:18;;;;;;;4.03;1.55;;;;;;;;;;5013523;28;20678;-87
2022/06/24 04:38:45;;;;;;;5.65;1.52;;;;;;;;;;5012553;28;20230;-86
2022/06/24 04:41:13;;;;;;;2.47;1.33;;;;;;;;;;5013160;28;20234;-87
2022/06/24 04:43:40;;;;;;;2.08;1.35;;;;;;;;;;5012557;28;20691;-86
2022/06/24 04:46:08;;;;;;;2.05;1.63;;;;;;;;;;5013645;28;20208;-87
2022/06/24 04:48:36;;;;;;;2.50;1.35;;;;;;;;;;5013565;28;20203;-87
2022/06/24 04:51:03;;;;;;;1.73;1.17;;;;;;;;;;5014228;28;20255;-88
2022/06/24 04:53:30;;;;;;;2.75;1.27;;;;;;;;;;5014045;28;20203;-87
2022/06/24 04:55:57;;;;;;;4.53;1.60;;;;;;;;;;5013916;28;20220;-86
2022/06/24 04:58:25;;;;;;;3.80;1.52;;;;;;;;;;5013639;28;20231;-86
2022/06/24 05:00:52;;;;;;;2.70;1.30;;;;;;;;;;5011513;28;20243;-87
2022/06/24 05:03:20;;;;;;;7.88;1.90;;;;;;;;;;5013081;28;20211;-87
2022/06/24 05:05:47;;;;;;;5.05;1.70;;;;;;;;;;5012210;28;20239;-86
2022/06/24 05:08:14;;;;;;;2.60;1.48;;;;;;;;;;5013045;28;20203;-86
2022/06/24 05:10:42;;;;;;;3.05;1.58;;;;;;;;;;5014878;28;20250;-80
2022/06/24 05:13:09;;;;;;;4.25;1.65;;;;;;;;;;5019914;28;20580;-81
2022/06/24 05:15:36;;;;;;;1.63;1.20;;;;;;;;;;5018819;28;20651;-81
2022/06/24 05:18:03;;;;;;;4.50;1.85;;;;;;;;;;5019346;28;20254;-80
2022/06/24 05:20:31;;;;;;;3.65;1.77;;;;;;;;;;5018646;28;20306;-81
2022/06/24 05:22:59;;;;;;;2.75;1.63;;;;;;;;;;5019302;28;20207;-80
2022/06/24 05:25:26;;;;;;;3.83;1.63;;;;;;;;;;5019664;28;20238;-81
2022/06/24 05:27:53;;;;;;;3.60;1.65;;;;;;;;;;5020176;28;20203;-82
2022/06/24 05:30:20;;;;;;;1.40;1.30;;;;;;;;;;5020954;28;20247;-81
2022/06/24 05:32:47;;;;;;;2.25;1.30;;;;;;;;;;5022481;28;20207;-81
2022/06/24 05:35:14;;;;;;;1.73;1.45;;;;;;;;;;5021548;28;20231;-81
2022/06/24 05:37:43;;;;;;;2.83;1.77;;;;;;;;;;5023172;28;20203;-81
2022/06/24 05:40:10;;;;;;;4.57;1.67;;;;;;;;;;5023401;28;20262;-81
2022/06/24 05:42:38;;;;;;;2.55;1.63;;;;;;;;;;5031701;28;20198;-82
2022/06/24 05:45:05;;;;;;;4.85;1.75;;;;;;;;;;5032710;28;20247;-85
2022/06/24 05:47:34;;;;;;;4.55;1.90;;;;;;;;;;5030133;28;20211;-83
2022/06/24 05:50:01;;;;;;;4.00;1.85;;;;;;;;;;5022492;28;20246;-82
2022/06/24 05:55:15;;;;;;;3.33;1.80;;;;;;;;;;5024534;28;20241;-82
2022/06/24 05:57:42;;;;;;;2.58;1.77;;;;;;;;;;5024004;28;20597;-81
2022/06/24 06:00:09;;;;;;;3.33;1.83;;;;;;;;;;5020552;28;20235;-84
2022/06/24 06:02:36;;;;;;;4.00;1.85;;;;;;;;;;5021042;28;20207;-81
2022/06/24 06:05:03;;;;;;;2.72;1.90;;;;;;;;;;5020559;28;20699;-83
2022/06/24 06:07:30;;;;;;;5.10;2.00;;;;;;;;;;5021254;28;20683;-81
2022/06/24 06:09:58;;;;;;;1.92;1.58;;;;;;;;;;5020077;28;20242;-81
2022/06/24 06:12:26;;;;;;;4.57;1.70;;;;;;;;;;5023704;28;20220;-81
2022/06/24 06:14:53;;;;;;;3.15;1.70;;;;;;;;;;5023900;28;20239;-82
2022/06/24 06:17:20;;;;;;;4.43;1.90;;;;;;;;;;5025334;28;20218;-82
2022/06/24 06:19:47;;;;;;;7.35;2.28;;;;;;;;;;5024711;28;20620;-83
2022/06/24 06:22:14;;;;;;;5.05;1.90;;;;;;;;;;5021560;28;20302;-82
2022/06/24 06:24:41;;;;;;;5.97;2.17;;;;;;;;;;5023888;28;20247;-83
2022/06/24 06:27:09;;;;;;;3.53;1.90;;;;;;;;;;5019394;28;20298;-83
2022/06/24 06:29:37;;;;;;;3.00;2.13;;;;;;;;;;5018344;28;20259;-84
2022/06/24 06:32:04;;;;;;;2.83;1.90;;;;;;;;;;5020058;28;20211;-84
2022/06/24 06:34:32;;;;;;;4.30;2.00;;;;;;;;;;5019144;28;20246;-83
2022/06/24 06:36:59;;;;;;;5.43;2.17;;;;;;;;;;5020394;28;20246;-83
2022/06/24 06:39:26;;;;;;;4.57;2.03;;;;;;;;;;5017894;28;20246;-85
2022/06/24 06:41:53;;;;;;;4.10;2.22;;;;;;;;;;5018566;28;20231;-84
2022/06/24 06:44:20;;;;;;;2.60;2.08;;;;;;;;;;5018556;28;20239;-84
2022/06/24 06:46:49;;;;;;;4.78;2.75;;;;;;;;;;5022145;28;20262;-83
2022/06/24 06:49:16;;;;;;;2.72;2.15;;;;;;;;;;5020046;28;20242;-82
2022/06/24 06:51:43;;;;;;;2.85;2.28;;;;;;;;;;5019793;28;20227;-84
2022/06/24 06:54:11;;;;;;;5.53;2.85;;;;;;;;;;5018577;28;20247;-84
2022/06/24 06:56:38;;;;;;;4.55;2.72;;;;;;;;;;5017500;28;20568;-83
2022/06/24 06:59:05;;;;;;;5.00;2.50;;;;;;;;;;5016954;28;20602;-84
2022/06/24 07:01:32;;;;;;;3.20;2.28;;;;;;;;;;5019422;28;20231;-83
2022/06/24 07:04:00;;;;;;;2.72;2.45;;;;;;;;;;5017231;28;20242;-84
2022/06/24 07:06:27;;;;;;;2.40;2.20;;;;;;;;;;5016822;28;20203;-81
2022/06/24 07:08:54;;;;;;;4.57;2.13;;;;;;;;;;5016147;28;20288;-83
2022/06/24 07:11:21;;;;;;;4.03;2.08;;;;;;;;;;5016057;28;20226;-85
2022/06/24 07:13:48;;;;;;;2.13;1.80;;;;;;;;;;5015466;28;20214;-84
2022/06/24 07:16:16;;;;;;;4.70;2.08;;;;;;;;;;5016590;28;20216;-86
2022/06/24 07:18:43;;;;;;;2.75;1.90;;;;;;;;;;5015776;28;20238;-84
2022/06/24 07:21:13;;;;;;;4.13;1.73;;;;;;;;;;5017606;28;20342;-84
2022/06/24 07:23:40;;;;;;;1.92;1.60;;;;;;;;;;5016880;28;20195;-83
2022/06/24 07:26:08;;;;;;;5.15;2.20;;;;;;;;;;5018790;28;20211;-83
2022/06/24 07:28:35;;;;;;;1.98;1.77;;;;;;;;;;5015343;28;20206;-84
2022/06/24 07:31:02;;;;;;;1.77;1.67;;;;;;;;;;5018474;28;20726;-84
2022/06/24 07:33:29;;;;;;;4.03;1.77;;;;;;;;;;5017112;28;20204;-83
2022/06/24 07:35:56;;;;;;;3.33;1.77;;;;;;;;;;5017677;28;20297;-83
2022/06/24 07:38:25;;;;;;;1.63;1.52;;;;;;;;;;5018189;28;20223;-82
2022/06/24 07:40:55;;;;;;;2.97;1.65;;;;;;;;;;5018036;28;20587;-84
2022/06/24 07:43:22;;;;;;;1.70;1.60;;;;;;;;;;5017757;28;20207;-83
2022/06/24 07:45:49;;;;;;;2.00;1.90;;;;;;;;;;5018627;28;20242;-83
2022/06/24 07:48:16;;;;;;;3.17;1.85;;;;;;;;;;5019418;28;20207;-82
2022/06/24 07:50:43;;;;;;;3.92;1.90;;;;;;;;;;5019791;28;20235;-83
2022/06/24 07:53:10;;;;;;;2.45;1.77;;;;;;;;;;5018629;28;20218;-81
2022/06/24 07:58:23;;;;;;;1.65;1.30;;;;;;;;;;5020373;28;20258;-83
2022/06/24 08:00:51;;;;;;;3.17;1.52;;;;;;;;;;5017158;28;20239;-83
2022/06/24 08:03:18;;;;;;;1.52;1.38;;;;;;;;;;5020681;28;20234;-84
2022/06/24 08:05:45;;;;;;;3.90;1.70;;;;;;;;;;5020045;28;20238;-82
2022/06/24 08:08:12;;;;;;;5.75;1.50;;;;;;;;;;5019503;28;20226;-82
2022/06/24 08:10:41;;;;;;;3.70;1.52;;;;;;;;;;5023547;28;20235;-83
2022/06/24 08:13:08;;;;;;;6.60;1.70;;;;;;;;;;5023047;28;20294;-81
2022/06/24 08:15:35;;;;;;;3.08;1.73;;;;;;;;;;5021151;28;20241;-83
2022/06/24 08:18:02;;;;;;;3.97;2.15;;;;;;;;;;5019692;28;20208;-82
2022/06/24 08:20:29;;;;;;;2.03;1.83;;;;;;;;;;5020992;28;20241;-82
2022/06/24 08:22:56;;;;;;;1.88;1.77;;;;;;;;;;5020174;28;20207;-83
2022/06/24 08:25:23;;;;;;;1.75;1.50;;;;;;;;;;5019289;28;20235;-83
2022/06/24 08:27:51;;;;;;;1.80;1.50;;;;;;;;;;5020837;28;20214;-82
2022/06/24 08:30:19;;;;;;;1.83;1.52;;;;;;;;;;5019794;28;20249;-83
2022/06/24 08:32:46;;;;;;;2.95;1.50;;;;;;;;;;5020909;28;20211;-82
2022/06/24 08:35:13;;;;;;;2.30;1.58;;;;;;;;;;5020927;28;20236;-83
2022/06/24 08:37:40;;;;;;;3.78;1.75;;;;;;;;;;5030987;28;20203;-83
2022/06/24 08:40:08;;;;;;;5.47;1.83;;;;;;;;;;5034709;28;20242;-83
2022/06/24 08:42:37;;;;;;;1.60;1.50;;;;;;;;;;5035519;28;20663;-82
2022/06/24 08:45:06;;;;;;;1.90;1.67;;;;;;;;;;5033296;28;20306;-83
2022/06/24 08:47:33;;;;;;;2.53;1.80;;;;;;;;;;5033534;28;20238;-83
2022/06/24 08:50:00;;;;;;;2.65;1.55;;;;;;;;;;5031763;28;20258;-83
2022/06/24 08:52:27;;;;;;;2.35;1.33;;;;;;;;;;5030159;28;20211;-82
2022/06/24 08:54:54;;;;;;;5.40;1.85;;;;;;;;;;5028339;28;20235;-82
2022/06/24 08:57:21;;;;;;;5.20;2.50;;;;;;;;;;5026838;28;20211;-81
2022/06/24 08:59:48;;;;;;;1.75;1.65;;;;;;;;;;5027615;28;20653;-80
2022/06/24 09:02:18;;;;;;;2.47;1.55;;;;;;;;;;5017306;28;20216;-79
2022/06/24 09:04:45;;;;;;;4.13;1.75;;;;;;;;;;5019754;28;20239;-79
2022/06/24 09:07:17;;;;;;;3.78;2.00;;;;;;;;;;5016045;28;20203;-79
2022/06/24 09:09:57;;;;;;;1.92;1.83;;;;;;;;;;5015026;28;20238;-81
2022/06/24 09:12:24;;;;;;;2.13;1.70;;;;;;;;;;5016319;28;20195;-79
2022/06/24 09:14:51;;;;;;;3.47;2.20;;;;;;;;;;5013314;28;20235;-79
2022/06/24 09:17:28;;;;;;;3.15;1.70;;;;;;;;;;5022291;28;20265;-79
2022/06/24 09:19:55;;;;;;;3.53;2.05;;;;;;;;;;5013929;28;20234;-81
2022/06/24 09:22:22;;;;;;;3.28;2.20;;;;;;;;;;5014641;28;20559;-79
2022/06/24 09:24:51;;;;;;;2.63;1.80;;;;;;;;;;5014995;28;20231;-80
2022/06/24 09:27:18;;;;;;;2.28;1.52;;;;;;;;;;5015290;28;20207;-79
2022/06/24 09:29:48;;;;;;;2.67;1.70;;;;;;;;;;5013611;28;20235;-80
2022/06/24 09:32:15;;;;;;;3.70;1.85;;;;;;;;;;5015608;28;20273;-82
2022/06/24 09:34:57;;;;;;;3.72;1.58;;;;;;;;;;5013851;28;20234;-80
2022/06/24 09:37:35;;;;;;;6.05;2.10;;;;;;;;;;5015533;28;20196;-80
2022/06/24 09:40:15;;;;;;;2.85;1.70;;;;;;;;;;5015450;28;20230;-79
2022/06/24 09:42:42;;;;;;;3.20;1.55;;;;;;;;;;5014709;28;20191;-81
2022/06/24 09:45:09;;;;;;;1.88;1.70;;;;;;;;;;5013236;28;20239;-79
2022/06/24 09:47:39;;;;;;;4.18;1.70;;;;;;;;;;5017894;28;20217;-80
2022/06/24 09:50:06;;;;;;;2.75;1.38;;;;;;;;;;5019050;28;20255;-79
2022/06/24 09:52:33;;;;;;;1.70;1.48;;;;;;;;;;5018822;28;20601;-82
2022/06/24 09:55:02;;;;;;;2.55;1.63;;;;;;;;;;5019488;28;20239;-79
2022/06/24 09:57:29;;;;;;;5.68;1.88;;;;;;;;;;5020651;28;20211;-80
2022/06/24 10:02:43;;;;;;;2.58;1.50;;;;;;;;;;4980235;28;20247;-80
2022/06/24 10:05:11;;;;;;;1.48;1.40;;;;;;;;;;4980508;28;20236;-80
2022/06/24 10:07:38;;;;;;;2.53;1.50;;;;;;;;;;4979754;28;20219;-83
2022/06/24 10:10:08;;;;;;;2.20;1.60;;;;;;;;;;4979087;28;20233;-82
2022/06/24 10:12:37;;;;;;;2.58;1.60;;;;;;;;;;4980337;28;20566;-79
2022/06/24 10:15:04;;;;;;;2.45;1.67;;;;;;;;;;4979800;28;20240;-79
2022/06/24 10:17:32;;;;;;;2.17;1.50;;;;;;;;;;4981206;28;20197;-79
2022/06/24 10:19:59;;;;;;;2.95;1.70;;;;;;;;;;4980952;28;20295;-80
2022/06/24 10:22:36;;;;;;;1.60;1.50;;;;;;;;;;4983028;28;20209;-81
2022/06/24 10:25:03;;;;;;;3.00;1.40;;;;;;;;;;4981704;28;20244;-80
2022/06/24 10:27:45;;;;;;;1.27;1.20;;;;;;;;;;4980136;28;20240;-80
2022/06/24 10:30:13;;;;;;;6.57;1.77;;;;;;;;;;4978798;28;20596;-79
2022/06/24 10:33:12;;;;;;;1.80;1.58;;;;;;;;;;4981048;28;20217;-79
2022/06/24 10:35:53;;;;;;;3.35;1.40;;;;;;;;;;4981541;28;20295;-84
2022/06/24 10:38:21;;;;;;;3.33;1.48;;;;;;;;;;4981238;28;20219;-79
2022/06/24 10:40:49;;;;;;;2.28;1.63;;;;;;;;;;4980917;28;20716;-79
2022/06/24 10:43:21;;;;;;;1.70;1.60;;;;;;;;;;4979921;28;20581;-78
2022/06/24 10:45:50;;;;;;;3.13;1.63;;;;;;;;;;4980889;28;20252;-79
2022/06/24 10:48:17;;;;;;;4.07;1.55;;;;;;;;;;4981022;28;20637;-80
2022/06/24 10:51:04;;;;;;;2.47;1.45;;;;;;;;;;4979234;28;20259;-81
2022/06/24 10:53:31;;;;;;;1.90;1.73;;;;;;;;;;4981005;28;20212;-79
2022/06/24 10:55:58;;;;;;;3.50;1.40;;;;;;;;;;4980414;28;20232;-80
2022/06/24 10:58:25;;;;;;;1.40;1.30;;;;;;;;;;4978260;28;20217;-80
2022/06/24 11:00:57;;;;;;;2.63;1.85;;;;;;;;;;4992191;28;20224;-81
2022/06/24 11:03:25;;;;;;;2.05;1.42;;;;;;;;;;5017941;28;20195;-81
2022/06/24 11:05:52;;;;;;;1.25;1.23;;;;;;;;;;5019648;28;20265;-79
2022/06/24 11:08:20;;;;;;;1.45;1.35;;;;;;;;;;5021129;28;20265;-80
2022/06/24 11:10:48;;;;;;;4.07;1.80;;;;;;;;;;5018233;28;20235;-79
2022/06/24 11:13:15;;;;;;;1.55;1.45;;;;;;;;;;5019506;28;20241;-81
2022/06/24 11:15:45;;;;;;;3.67;1.38;;;;;;;;;;5016816;28;20230;-79
2022/06/24 11:18:15;;;;;;;2.33;1.23;;;;;;;;;;5016464;28;20206;-82
2022/06/24 11:20:45;;;;;;;1.45;1.35;;;;;;;;;;5015896;28;20234;-82
2022/06/24 11:23:13;;;;;;;1.88;1.33;;;;;;;;;;5015852;28;20215;-81
2022/06/24 11:25:40;;;;;;;1.83;1.35;;;;;;;;;;5019421;28;20296;-84
2022/06/24 11:28:18;;;;;;;1.85;1.50;;;;;;;;;;5017942;28;20211;-80
2022/06/24 11:30:45;;;;;;;1.65;1.30;;;;;;;;;;5016316;28;20662;-79
2022/06/24 11:33:13;;;;;;;1.08;1.08;;;;;;;;;;5016432;28;20207;-80
2022/06/24 11:35:40;;;;;;;4.20;1.40;;;;;;;;;;5017140;28;20727;-79
2022/06/24 11:38:08;;;;;;;2.13;1.65;;;;;;;;;;5020416;28;20212;-84
2022/06/24 11:40:35;;;;;;;2.13;1.30;;;;;;;;;;5019447;28;20242;-82
2022/06/24 11:43:05;;;;;;;1.92;1.58;;;;;;;;;;5019897;28;20207;-80
2022/06/24 11:45:33;;;;;;;3.10;1.58;;;;;;;;;;5019985;28;20271;-79
2022/06/24 11:48:00;;;;;;;3.40;1.42;;;;;;;;;;5017629;28;20211;-80
2022/06/24 11:50:28;;;;;;;2.78;1.38;;;;;;;;;;5018261;28;20227;-80
2022/06/24 11:52:57;;;;;;;1.60;1.48;;;;;;;;;;5021104;28;20207;-81
2022/06/24 11:55:25;;;;;;;1.52;1.40;;;;;;;;;;5020371;28;20287;-79
2022/06/24 11:57:56;;;;;;;1.33;1.23;;;;;;;;;;5020018;28;20207;-80
2022/06/24 12:00:24;;;;;;;8.05;1.58;;;;;;;;;;5021482;28;20239;-81
2022/06/24 12:02:51;;;;;;;2.15;1.33;;;;;;;;;;5021637;28;20231;-81
2022/06/24 12:05:19;;;;;;;1.48;1.20;;;;;;;;;;5021804;28;20263;-80
2022/06/24 12:07:48;;;;;;;1.83;1.33;;;;;;;;;;5022385;28;20230;-80
2022/06/24 12:10:15;;;;;;;1.77;1.52;;;;;;;;;;5021259;28;20265;-79
2022/06/24 12:12:55;;;;;;;1.30;1.20;;;;;;;;;;5020189;28;20207;-79
2022/06/24 12:15:23;;;;;;;1.42;1.27;;;;;;;;;;5020875;28;20245;-80
2022/06/24 12:17:51;;;;;;;1.98;1.80;;;;;;;;;;5021405;28;20219;-81
2022/06/24 12:20:22;;;;;;;4.38;1.50;;;;;;;;;;5020551;28;20653;-82
2022/06/24 12:23:04;;;;;;;2.38;1.13;;;;;;;;;;5022100;28;20262;-80
2022/06/24 12:25:39;;;;;;;1.85;1.52;;;;;;;;;;5019227;28;20239;-80
2022/06/24 12:28:13;;;;;;;1.60;1.50;;;;;;;;;;5020570;28;20576;-81
2022/06/24 12:30:40;;;;;;;2.83;1.48;;;;;;;;;;5021253;28;20238;-83
2022/06/24 12:33:11;;;;;;;1.70;1.60;;;;;;;;;;5022409;28;20286;-81
2022/06/24 12:35:38;;;;;;;3.40;1.60;;;;;;;;;;5019847;28;20242;-81
2022/06/24 12:38:06;;;;;;;2.25;1.50;;;;;;;;;;5020496;28;20247;-80
2022/06/24 12:40:34;;;;;;;1.67;1.50;;;;;;;;;;5019148;28;20358;-80
2022/06/24 12:43:08;;;;;;;1.75;1.40;;;;;;;;;;5018047;28;20208;-79
2022/06/24 12:45:35;;;;;;;1.83;1.30;;;;;;;;;;5019066;28;20247;-81
2022/06/24 12:50:56;;;;;;;2.38;1.70;;;;;;;;;;5020658;28;20238;-81
2022/06/24 12:53:23;;;;;;;2.47;1.52;;;;;;;;;;5022121;28;20218;-84
2022/06/24 12:55:52;;;;;;;2.97;1.40;;;;;;;;;;5021498;28;20231;-80
2022/06/24 12:58:19;;;;;;;4.18;1.38;;;;;;;;;;5021030;28;20215;-80
2022/06/24 13:00:46;;;;;;;1.65;1.30;;;;;;;;;;5018976;28;20575;-80
2022/06/24 13:03:17;;;;;;;1.20;1.15;;;;;;;;;;5018973;28;20203;-80
2022/06/24 13:05:44;;;;;;;1.23;1.10;;;;;;;;;;5019387;28;20258;-81
2022/06/24 13:08:11;;;;;;;0.90;0.90;;;;;;;;;;5017780;28;20222;-80
2022/06/24 13:10:38;;;;;;;0.98;0.98;;;;;;;;;;5021034;28;20239;-80
2022/06/24 13:13:07;;;;;;;2.58;1.20;;;;;;;;;;5018744;28;20239;-85
2022/06/24 13:15:34;;;;;;;1.67;1.13;;;;;;;;;;5020747;28;20258;-81
2022/06/24 13:18:01;;;;;;;3.55;1.30;;;;;;;;;;5020573;28;20211;-80
2022/06/24 13:20:28;;;;;;;2.65;1.38;;;;;;;;;;5020310;28;20722;-80
2022/06/24 13:22:56;;;;;;;2.53;1.23;;;;;;;;;;5023907;28;20207;-81
2022/06/24 13:25:23;;;;;;;2.70;1.20;;;;;;;;;;5025131;28;20231;-83
2022/06/24 13:27:51;;;;;;;1.92;1.40;;;;;;;;;;5024977;28;20207;-82
2022/06/24 13:30:19;;;;;;;1.10;1.10;;;;;;;;;;5025038;28;20235;-84
2022/06/24 13:32:46;;;;;;;1.27;0.80;;;;;;;;;;5024609;28;20207;-84
2022/06/24 13:35:13;;;;;;;1.23;1.10;;;;;;;;;;5025476;28;20235;-81
2022/06/24 13:37:40;;;;;;;1.00;0.80;;;;;;;;;;5026141;28;20215;-81
2022/06/24 13:40:08;;;;;;;1.67;0.90;;;;;;;;;;5024415;28;20270;-80
2022/06/24 13:42:35;;;;;;;1.77;1.10;;;;;;;;;;5023764;28;20269;-80
2022/06/24 13:45:03;;;;;;;1.65;1.10;;;;;;;;;;5025567;28;20609;-81
2022/06/24 13:47:32;;;;;;;0.95;0.90;;;;;;;;;;5025412;28;20211;-82
2022/06/24 13:49:59;;;;;;;1.90;0.70;;;;;;;;;;5026214;28;20242;-81
2022/06/24 13:52:27;;;;;;;2.55;1.20;;;;;;;;;;5025772;28;20204;-84
2022/06/24 13:54:54;;;;;;;1.58;0.70;;;;;;;;;;5026894;28;20235;-81
2022/06/24 13:57:22;;;;;;;0.93;0.93;;;;;;;;;;5024931;28;20288;-80
2022/06/24 13:59:49;;;;;;;1.23;1.13;;;;;;;;;;5025344;28;20243;-83
2022/06/24 14:02:16;;;;;;;4.03;0.98;;;;;;;;;;5023629;28;20231;-80
2022/06/24 14:04:44;;;;;;;1.05;0.95;;;;;;;;;;5023821;28;20242;-83
2022/06/24 14:07:11;;;;;;;1.45;1.35;;;;;;;;;;5025286;28;20647;-81
2022/06/24 14:09:38;;;;;;;3.22;1.30;;;;;;;;;;5024693;28;20719;-81
2022/06/24 14:12:06;;;;;;;1.50;1.40;;;;;;;;;;5024840;28;20210;-81
2022/06/24 14:14:33;;;;;;;1.67;1.58;;;;;;;;;;5022669;28;20235;-81
2022/06/24 14:17:00;;;;;;;4.30;1.48;;;;;;;;;;5023969;28;20207;-80
2022/06/24 14:19:27;;;;;;;3.45;1.00;;;;;;;;;;5023680;28;20297;-82
2022/06/24 14:21:56;;;;;;;1.23;1.13;;;;;;;;;;5024627;28;20235;-80
2022/06/24 14:24:35;;;;;;;1.50;1.17;;;;;;;;;;5022498;28;20250;-79
2022/06/24 14:27:02;;;;;;;3.08;1.45;;;;;;;;;;5024934;28;20188;-81
2022/06/24 14:29:29;;;;;;;0.82;0.82;;;;;;;;;;5023651;28;20238;-82
2022/06/24 14:31:56;;;;;;;1.75;1.23;;;;;;;;;;5023848;28;20231;-80
2022/06/24 14:34:23;;;;;;;0.88;0.88;;;;;;;;;;5022443;28;20235;-84
2022/06/24 14:36:50;;;;;;;1.17;1.10;;;;;;;;;;5021514;28;20211;-81
2022/06/24 14:42:04;;;;;;;1.70;1.30;;;;;;;;;;5023765;28;20226;-83
2022/06/24 14:44:32;;;;;;;1.75;1.23;;;;;;;;;;5020827;28;20238;-80
2022/06/24 14:47:00;;;;;;;1.30;1.20;;;;;;;;;;5024396;28;20207;-80
2022/06/24 14:49:27;;;;;;;1.40;1.30;;;;;;;;;;5022357;28;20250;-80
2022/06/24 14:51:54;;;;;;;2.65;1.30;;;;;;;;;;5022608;28;20231;-80
2022/06/24 14:54:22;;;;;;;1.60;1.30;;;;;;;;;;5025717;28;20235;-81
2022/06/24 14:56:49;;;;;;;1.85;1.70;;;;;;;;;;5028925;28;20578;-81
2022/06/24 14:59:17;;;;;;;3.38;1.20;;;;;;;;;;5027000;28;20235;-81
2022/06/24 15:01:44;;;;;;;3.50;1.52;;;;;;;;;;5019098;28;20224;-84
2022/06/24 15:04:11;;;;;;;1.25;1.15;;;;;;;;;;5013802;28;20243;-84
2022/06/24 15:06:38;;;;;;;1.75;1.10;;;;;;;;;;5014655;28;20211;-84